Time;durP1;ratioP1;P1;durP2;ratioP2;P2;SDS_P1;SDS_P2;PMS_P1;PMS_P2;Temp;Humidity;BMP_temperature;BMP_pressure;BME280_temperature;BME280_humidity;BME280_pressure;Samples;Min_cycle;Max_cycle;Signal;HPM_P1;HPM_P2
2022/03/09 00:00:32;;;;;;;14.20;7.25;;;;;;;2.64;61.20;99598.63;5015923;28;20489;-77
2022/03/09 00:02:58;;;;;;;10.30;6.43;;;;;;;2.62;61.08;99593.53;5031728;28;20075;-77
2022/03/09 00:05:23;;;;;;;13.02;7.53;;;;;;;2.59;61.31;99587.81;5034026;28;20026;-77
2022/03/09 00:07:48;;;;;;;12.00;7.40;;;;;;;2.51;61.10;99572.09;5033999;28;20029;-78
2022/03/09 00:10:14;;;;;;;10.52;6.97;;;;;;;2.57;61.13;99588.00;5030268;28;20049;-77
2022/03/09 00:12:39;;;;;;;10.27;6.93;;;;;;;2.50;61.39;99575.69;5030671;28;20041;-78
2022/03/09 00:15:05;;;;;;;12.13;7.47;;;;;;;2.52;60.93;99585.06;5030617;28;20436;-77
2022/03/09 00:17:30;;;;;;;14.13;7.18;;;;;;;2.42;61.58;99575.78;5029706;28;23713;-78
2022/03/09 00:19:56;;;;;;;11.07;6.80;;;;;;;2.52;61.28;99592.97;5016340;28;20096;-77
2022/03/09 00:22:21;;;;;;;9.80;6.63;;;;;;;2.43;61.15;99586.13;5042200;28;20033;-77
2022/03/09 00:24:46;;;;;;;12.80;8.10;;;;;;;2.44;61.80;99585.16;5031491;28;20052;-77
2022/03/09 00:27:12;;;;;;;11.63;7.18;;;;;;;2.48;61.22;99585.59;5013084;28;20034;-77
2022/03/09 00:29:37;;;;;;;11.20;6.22;;;;;;;2.35;61.72;99567.78;5032959;28;20120;-77
2022/03/09 00:32:04;;;;;;;10.30;7.07;;;;;;;2.42;61.26;99579.25;5037157;28;20496;-77
2022/03/09 00:34:30;;;;;;;11.90;6.50;;;;;;;2.47;61.38;99584.78;5019746;28;20123;-78
2022/03/09 00:36:55;;;;;;;10.88;6.97;;;;;;;2.46;61.77;99593.69;5036950;28;20537;-77
2022/03/09 00:39:20;;;;;;;10.93;6.60;;;;;;;2.44;61.19;99593.06;5030786;28;20041;-77
2022/03/09 00:41:45;;;;;;;9.82;6.90;;;;;;;2.25;61.78;99556.66;5035403;28;20040;-77
2022/03/09 00:44:11;;;;;;;10.48;6.68;;;;;;;2.31;61.42;99570.94;5001357;28;20397;-77
2022/03/09 00:46:36;;;;;;;10.40;6.85;;;;;;;2.31;61.63;99578.84;5035943;28;20037;-77
2022/03/09 00:49:02;;;;;;;13.50;6.95;;;;;;;2.37;61.51;99584.22;5034488;28;20029;-77
2022/03/09 00:51:28;;;;;;;9.15;6.45;;;;;;;2.36;62.09;99579.94;5029919;28;20037;-77
2022/03/09 00:53:53;;;;;;;10.27;6.72;;;;;;;2.29;61.58;99571.94;5035303;28;20029;-77
2022/03/09 00:56:18;;;;;;;11.70;7.45;;;;;;;2.04;62.07;99527.56;5034512;28;20473;-77
2022/03/09 00:58:44;;;;;;;14.23;7.07;;;;;;;2.18;62.30;99566.28;5032263;28;20477;-77
2022/03/09 01:01:11;;;;;;;14.07;7.68;;;;;;;2.29;61.80;99579.03;5034513;28;20079;-78
2022/03/09 01:03:37;;;;;;;11.88;7.28;;;;;;;2.23;61.73;99561.28;5038905;28;20029;-77
2022/03/09 01:06:02;;;;;;;9.23;6.43;;;;;;;2.20;61.90;99565.13;5032654;28;20135;-77
2022/03/09 01:08:28;;;;;;;13.15;7.50;;;;;;;2.22;61.46;99562.28;5032787;28;20120;-77
2022/03/09 01:10:53;;;;;;;12.15;7.57;;;;;;;2.13;61.32;99556.28;5019175;28;20030;-78
2022/03/09 01:13:18;;;;;;;11.75;7.05;;;;;;;2.15;61.87;99570.09;5033600;28;20053;-77
2022/03/09 01:15:44;;;;;;;15.48;8.50;;;;;;;2.03;62.30;99563.59;4999459;28;20061;-77
2022/03/09 01:18:09;;;;;;;15.18;7.80;;;;;;;2.17;61.91;99597.06;5031538;28;20057;-77
2022/03/09 01:20:35;;;;;;;12.32;7.45;;;;;;;2.13;61.69;99592.31;5024163;28;20033;-77
2022/03/09 01:23:00;;;;;;;12.52;7.80;;;;;;;2.17;62.31;99589.16;5013725;28;20120;-77
2022/03/09 01:25:25;;;;;;;16.73;8.05;;;;;;;2.08;62.13;99584.13;5031797;28;20025;-77
2022/03/09 01:27:51;;;;;;;12.68;7.32;;;;;;;2.09;61.89;99591.03;5022815;28;20032;-77
2022/03/09 01:30:16;;;;;;;10.77;7.57;;;;;;;2.11;61.95;99586.41;5040891;28;20033;-77
2022/03/09 01:32:42;;;;;;;12.40;7.63;;;;;;;2.02;62.34;99583.03;5033156;28;20029;-77
2022/03/09 01:35:07;;;;;;;13.65;7.47;;;;;;;1.97;62.29;99574.81;5030515;28;20048;-77
2022/03/09 01:37:33;;;;;;;12.13;7.25;;;;;;;2.08;61.89;99589.38;5018073;28;20074;-77
2022/03/09 01:39:58;;;;;;;13.02;7.15;;;;;;;1.94;61.92;99563.84;5041804;28;20499;-77
2022/03/09 01:42:24;;;;;;;13.63;7.85;;;;;;;2.04;62.13;99593.38;5015782;28;20021;-78
2022/03/09 01:44:49;;;;;;;9.57;7.63;;;;;;;1.90;62.28;99571.25;5039213;28;20105;-77
2022/03/09 01:47:14;;;;;;;11.20;7.10;;;;;;;1.94;62.12;99582.25;5015641;28;20022;-77
2022/03/09 01:49:40;;;;;;;12.02;7.15;;;;;;;1.94;62.44;99590.16;5037715;28;20045;-77
2022/03/09 01:52:07;;;;;;;16.58;7.75;;;;;;;1.90;62.47;99586.25;5034641;28;20480;-78
2022/03/09 01:54:32;;;;;;;12.25;7.03;;;;;;;1.92;62.43;99595.56;5034057;28;20025;-77
2022/03/09 01:56:59;;;;;;;10.23;7.07;;;;;;;1.96;62.58;99601.34;5016899;28;20052;-77
2022/03/09 01:59:25;;;;;;;15.45;8.23;;;;;;;1.92;62.13;99603.47;5037411;28;20083;-77
2022/03/09 02:01:51;;;;;;;14.85;6.88;;;;;;;1.91;62.36;99607.13;5039021;28;20029;-77
2022/03/09 02:04:17;;;;;;;11.85;7.30;;;;;;;1.90;62.71;99618.63;5029863;28;20048;-77
2022/03/09 02:06:43;;;;;;;10.95;7.28;;;;;;;1.88;62.54;99610.09;5036087;28;20075;-77
2022/03/09 02:11:55;;;;;;;9.75;7.07;;;;;;;1.85;62.68;99617.53;5063774;28;20127;-77
2022/03/09 02:14:48;;;;;;;10.13;7.20;;;;;;;1.81;62.61;99619.69;5038677;28;20479;-77
2022/03/09 02:17:16;;;;;;;10.73;7.05;;;;;;;1.60;62.71;99594.97;5042210;28;20036;-77
2022/03/09 02:19:45;;;;;;;10.15;7.03;;;;;;;1.73;62.79;99622.34;5042517;28;20500;-77
2022/03/09 02:22:29;;;;;;;14.45;7.60;;;;;;;1.64;63.03;99623.38;5035312;28;20029;-77
2022/03/09 02:24:55;;;;;;;11.20;7.22;;;;;;;1.64;63.15;99619.94;5031331;28;20067;-77
2022/03/09 02:27:20;;;;;;;10.05;7.47;;;;;;;1.72;63.18;99633.06;5034837;28;20072;-77
2022/03/09 02:29:47;;;;;;;10.95;7.45;;;;;;;1.62;62.91;99620.09;5020367;28;20034;-77
2022/03/09 02:32:12;;;;;;;8.75;6.85;;;;;;;1.68;62.72;99626.50;5034888;28;20040;-77
2022/03/09 02:34:37;;;;;;;9.10;6.43;;;;;;;1.71;62.36;99631.41;5035967;28;20397;-77
2022/03/09 02:37:03;;;;;;;11.15;6.95;;;;;;;1.67;62.51;99619.59;5034536;28;20033;-77
2022/03/09 02:39:28;;;;;;;12.15;7.85;;;;;;;1.68;62.88;99615.97;5018601;28;20038;-77
2022/03/09 02:41:53;;;;;;;10.88;7.43;;;;;;;1.72;62.70;99620.72;5035667;28;20024;-77
2022/03/09 02:44:19;;;;;;;12.45;7.57;;;;;;;1.61;62.97;99597.44;5033203;28;20570;-77
2022/03/09 02:46:44;;;;;;;11.65;7.90;;;;;;;1.72;62.49;99607.56;5036309;28;20535;-77
2022/03/09 02:49:09;;;;;;;11.23;7.15;;;;;;;1.66;61.97;99602.19;5040384;28;20039;-77
2022/03/09 02:51:35;;;;;;;11.65;7.60;;;;;;;1.71;62.85;99611.19;5003501;28;20491;-77
2022/03/09 02:54:01;;;;;;;10.10;6.55;;;;;;;1.65;62.40;99598.72;5035133;28;20064;-77
2022/03/09 02:56:26;;;;;;;10.50;6.75;;;;;;;1.65;62.28;99598.72;5015141;28;20037;-77
2022/03/09 02:58:51;;;;;;;10.40;7.00;;;;;;;1.65;62.70;99611.06;5035239;28;20033;-77
2022/03/09 03:01:17;;;;;;;10.68;7.93;;;;;;;1.55;62.09;99594.69;5035357;28;20049;-77
2022/03/09 03:03:43;;;;;;;11.60;7.07;;;;;;;1.65;62.72;99604.00;5034675;28;20041;-78
2022/03/09 03:06:10;;;;;;;10.63;6.60;;;;;;;1.65;62.63;99614.50;5034357;28;20025;-77
2022/03/09 03:08:37;;;;;;;11.25;7.57;;;;;;;1.57;62.37;99606.66;5035065;28;20037;-77
2022/03/09 03:11:03;;;;;;;11.57;7.32;;;;;;;1.47;62.48;99591.09;5033397;28;20091;-77
2022/03/09 03:13:29;;;;;;;12.02;7.30;;;;;;;1.42;62.84;99587.34;5032715;28;20393;-77
2022/03/09 03:15:54;;;;;;;10.82;7.13;;;;;;;1.49;62.79;99604.88;5028220;28;20453;-77
2022/03/09 03:18:19;;;;;;;11.30;6.68;;;;;;;1.56;63.34;99620.81;5032047;28;20026;-77
2022/03/09 03:20:45;;;;;;;10.68;7.35;;;;;;;1.57;62.65;99619.00;5033834;28;20120;-77
2022/03/09 03:23:10;;;;;;;11.43;8.15;;;;;;;1.43;62.59;99599.50;5034310;28;20029;-77
2022/03/09 03:25:35;;;;;;;13.05;7.60;;;;;;;1.47;62.46;99603.41;5037587;28;20021;-77
2022/03/09 03:28:00;;;;;;;14.20;6.90;;;;;;;1.54;63.42;99609.63;5014997;28;20110;-78
2022/03/09 03:30:26;;;;;;;12.63;7.18;;;;;;;1.44;63.07;99598.50;5048717;28;20041;-78
2022/03/09 03:32:51;;;;;;;14.63;7.97;;;;;;;1.51;62.72;99618.69;5031355;28;20620;-77
2022/03/09 03:35:16;;;;;;;12.30;7.40;;;;;;;1.51;63.42;99616.06;5033302;28;20120;-77
2022/03/09 03:37:42;;;;;;;13.00;7.53;;;;;;;1.42;62.89;99603.13;5032964;28;20045;-77
2022/03/09 03:40:08;;;;;;;9.98;6.82;;;;;;;1.46;62.64;99604.41;5038616;28;20026;-77
2022/03/09 03:42:33;;;;;;;11.00;7.43;;;;;;;1.37;62.69;99589.66;5032374;28;20389;-77
2022/03/09 03:44:58;;;;;;;10.88;7.35;;;;;;;1.46;63.11;99607.06;5020173;28;20029;-77
2022/03/09 03:47:24;;;;;;;12.02;7.68;;;;;;;1.35;63.10;99595.09;5033857;28;20101;-78
2022/03/09 03:49:49;;;;;;;12.57;7.55;;;;;;;1.41;63.52;99604.94;5019880;28;20029;-77
2022/03/09 03:52:15;;;;;;;13.07;7.38;;;;;;;1.42;62.58;99609.19;5031777;28;20113;-77
2022/03/09 03:54:40;;;;;;;10.60;7.13;;;;;;;1.39;63.08;99609.53;5033709;28;20037;-77
2022/03/09 03:57:06;;;;;;;14.05;7.38;;;;;;;1.35;62.91;99597.72;5061841;28;20143;-77
2022/03/09 03:59:31;;;;;;;15.50;8.32;;;;;;;1.33;63.27;99591.00;5050412;28;20026;-77
2022/03/09 04:01:56;;;;;;;11.98;7.25;;;;;;;1.37;62.93;99608.91;5035067;28;20108;-78
2022/03/09 04:04:22;;;;;;;13.27;7.07;;;;;;;1.41;63.20;99615.44;5018547;28;20057;-77
2022/03/09 04:06:47;;;;;;;10.80;7.68;;;;;;;1.34;63.29;99606.59;5033840;28;20028;-77
2022/03/09 04:09:12;;;;;;;7.93;6.30;;;;;;;1.28;63.50;99599.41;5021154;28;20033;-77
2022/03/09 04:11:38;;;;;;;12.32;8.07;;;;;;;1.35;63.08;99610.88;5032745;28;20052;-77
2022/03/09 04:14:03;;;;;;;10.73;6.65;;;;;;;1.09;63.04;99577.97;5033835;28;20040;-78
2022/03/09 04:16:29;;;;;;;12.98;7.18;;;;;;;1.25;62.99;99606.78;5019200;28;20040;-77
2022/03/09 04:18:54;;;;;;;11.52;7.30;;;;;;;1.07;63.08;99596.50;5033836;28;20031;-77
2022/03/09 04:21:19;;;;;;;11.15;6.78;;;;;;;1.26;63.85;99643.44;4997268;28;20037;-77
2022/03/09 04:23:44;;;;;;;11.60;7.45;;;;;;;1.19;63.32;99644.28;5022000;28;20092;-77
2022/03/09 04:26:10;;;;;;;11.00;6.78;;;;;;;1.21;63.75;99648.38;5015123;28;20076;-77
2022/03/09 04:28:35;;;;;;;11.45;7.25;;;;;;;1.11;63.28;99633.81;5019398;28;20032;-77
2022/03/09 04:31:01;;;;;;;13.25;7.75;;;;;;;0.96;63.34;99617.88;5035912;28;20488;-77
2022/03/09 04:33:26;;;;;;;16.17;7.65;;;;;;;1.10;63.75;99640.03;5035456;28;20040;-77
2022/03/09 04:35:51;;;;;;;10.10;7.03;;;;;;;1.10;63.90;99646.13;5023329;28;20041;-77
2022/03/09 04:38:17;;;;;;;11.32;6.35;;;;;;;1.09;63.47;99662.88;5021248;28;20135;-77
2022/03/09 04:40:42;;;;;;;10.52;6.88;;;;;;;1.01;63.45;99649.75;5016693;28;20099;-77
2022/03/09 04:43:08;;;;;;;10.93;6.82;;;;;;;1.06;63.62;99662.41;5014950;28;20076;-77
2022/03/09 04:45:33;;;;;;;11.32;7.25;;;;;;;1.03;63.86;99647.78;5032185;28;20591;-77
2022/03/09 04:47:59;;;;;;;13.85;8.20;;;;;;;1.05;63.86;99658.13;5033187;28;20036;-77
2022/03/09 04:50:24;;;;;;;9.65;6.40;;;;;;;1.02;63.47;99656.66;5030462;28;20589;-77
2022/03/09 04:52:50;;;;;;;10.57;6.72;;;;;;;0.89;63.80;99626.63;5031190;28;20510;-77
2022/03/09 04:55:15;;;;;;;13.43;7.65;;;;;;;1.06;63.43;99655.34;5037606;28;20060;-78
2022/03/09 04:57:40;;;;;;;14.73;7.32;;;;;;;0.98;63.20;99644.03;5037964;28;20041;-77
2022/03/09 05:00:06;;;;;;;19.83;7.70;;;;;;;0.97;63.60;99643.19;5036164;28;20029;-77
2022/03/09 05:02:32;;;;;;;10.70;7.65;;;;;;;0.95;62.92;99639.91;5015556;28;20040;-77
2022/03/09 05:04:57;;;;;;;11.70;7.57;;;;;;;0.97;63.11;99635.31;5017826;28;20036;-77
2022/03/09 05:07:23;;;;;;;25.17;8.52;;;;;;;1.02;63.49;99654.03;5019989;28;20029;-77
2022/03/09 05:09:48;;;;;;;18.52;7.85;;;;;;;0.94;63.17;99653.22;5036558;28;20055;-77
2022/03/09 05:12:13;;;;;;;14.05;7.75;;;;;;;1.00;62.95;99656.00;5025309;28;20036;-77
2022/03/09 05:14:38;;;;;;;12.80;8.07;;;;;;;0.95;63.43;99645.19;5035138;28;20083;-77
2022/03/09 05:17:04;;;;;;;15.95;8.30;;;;;;;0.93;63.79;99643.69;5012831;28;20089;-77
2022/03/09 05:19:29;;;;;;;21.33;8.32;;;;;;;0.91;63.21;99643.03;5031846;28;20033;-77
2022/03/09 05:21:55;;;;;;;14.38;7.75;;;;;;;0.84;63.14;99635.00;5013493;28;20072;-77
2022/03/09 05:24:20;;;;;;;16.33;7.82;;;;;;;0.88;64.13;99649.44;5032638;28;20033;-77
2022/03/09 05:26:48;;;;;;;15.27;9.02;;;;;;;0.92;63.29;99665.72;5040646;28;20021;-77
2022/03/09 05:29:14;;;;;;;14.75;7.57;;;;;;;0.91;64.10;99664.06;5041315;28;20059;-77
2022/03/09 05:31:41;;;;;;;13.07;7.55;;;;;;;0.82;63.44;99658.00;5030984;28;20029;-78
2022/03/09 05:34:07;;;;;;;15.57;8.40;;;;;;;0.82;63.90;99660.63;5017239;28;20033;-76
2022/03/09 05:36:32;;;;;;;12.32;7.57;;;;;;;0.87;63.64;99666.22;5029130;28;20048;-76
2022/03/09 05:38:57;;;;;;;13.38;8.35;;;;;;;0.86;63.66;99669.00;5033405;28;20044;-76
2022/03/09 05:41:23;;;;;;;11.95;8.35;;;;;;;0.85;63.79;99668.19;5017473;28;20037;-76
2022/03/09 05:43:50;;;;;;;18.02;10.38;;;;;;;0.77;63.37;99653.25;5012388;28;20044;-76
2022/03/09 05:46:15;;;;;;;17.13;8.57;;;;;;;0.75;63.28;99659.66;5029377;28;20052;-77
2022/03/09 05:48:41;;;;;;;12.95;8.63;;;;;;;0.84;64.11;99676.22;5026005;28;20080;-77
2022/03/09 05:51:06;;;;;;;12.55;7.75;;;;;;;0.83;63.47;99675.41;5028340;28;20489;-78
2022/03/09 05:53:31;;;;;;;17.10;7.70;;;;;;;0.60;63.67;99637.66;5035542;28;20029;-77
2022/03/09 05:55:57;;;;;;;15.55;9.05;;;;;;;0.76;63.85;99669.19;5016319;28;20049;-77
2022/03/09 05:58:22;;;;;;;16.75;9.15;;;;;;;0.81;63.28;99685.25;5020080;28;20049;-77
2022/03/09 06:00:47;;;;;;;14.80;8.85;;;;;;;0.70;63.75;99670.66;5030140;28;20083;-77
2022/03/09 06:03:13;;;;;;;13.98;7.95;;;;;;;0.77;63.62;99686.56;5030697;28;20022;-77
2022/03/09 06:05:38;;;;;;;16.48;8.98;;;;;;;0.77;64.30;99679.53;5012104;28;20079;-77
2022/03/09 06:08:04;;;;;;;15.88;8.75;;;;;;;0.79;63.86;99687.22;5032156;28;20037;-77
2022/03/09 06:10:29;;;;;;;15.45;8.77;;;;;;;0.73;63.35;99685.28;5031726;28;20026;-76
2022/03/09 06:12:54;;;;;;;18.27;9.10;;;;;;;0.69;63.53;99673.44;5029342;28;20033;-76
2022/03/09 06:15:20;;;;;;;15.85;8.68;;;;;;;0.79;64.11;99689.06;5015980;28;20030;-77
2022/03/09 06:17:47;;;;;;;18.77;9.15;;;;;;;0.55;63.91;99658.34;5017984;28;20029;-77
2022/03/09 06:20:18;;;;;;;30.77;9.98;;;;;;;0.62;63.78;99673.28;5031455;28;20064;-80
2022/03/09 06:22:44;;;;;;;20.20;10.38;;;;;;;0.62;63.45;99689.06;5047151;28;20033;-80
2022/03/09 06:25:09;;;;;;;15.02;9.10;;;;;;;0.46;63.96;99683.78;5031719;28;20128;-80
2022/03/09 06:27:42;;;;;;;18.52;9.32;;;;;;;0.48;64.75;99687.06;5030591;28;20039;-80
2022/03/09 06:30:09;;;;;;;24.63;10.52;;;;;;;0.51;64.95;99683.28;5014678;28;20029;-80
2022/03/09 06:32:34;;;;;;;36.00;10.90;;;;;;;0.48;65.24;99687.06;5031769;28;20710;-80
2022/03/09 06:35:01;;;;;;;21.85;10.57;;;;;;;0.38;65.91;99665.41;5010481;28;20132;-79
2022/03/09 06:37:27;;;;;;;21.02;11.80;;;;;;;0.43;65.77;99672.78;5030610;28;20089;-80
2022/03/09 06:39:52;;;;;;;24.42;10.55;;;;;;;0.32;65.48;99665.25;5013287;28;20728;-79
2022/03/09 06:42:17;;;;;;;15.40;10.32;;;;;;;0.44;65.81;99669.16;5023552;28;20045;-79
2022/03/09 06:44:43;;;;;;;16.65;10.68;;;;;;;0.44;66.68;99669.16;5029957;28;20041;-79
2022/03/09 06:47:08;;;;;;;20.38;9.48;;;;;;;0.38;65.67;99672.47;5029692;28;20043;-79
2022/03/09 06:49:33;;;;;;;15.93;9.07;;;;;;;0.46;65.80;99683.78;5011174;28;20756;-79
2022/03/09 06:51:58;;;;;;;16.27;9.65;;;;;;;0.48;66.45;99684.44;5016415;28;20029;-79
2022/03/09 06:54:24;;;;;;;18.67;9.25;;;;;;;0.39;65.87;99669.69;5034550;28;20180;-79
2022/03/09 06:56:51;;;;;;;20.13;10.10;;;;;;;0.43;66.06;99667.56;5032540;28;20031;-79
2022/03/09 06:59:17;;;;;;;15.50;9.52;;;;;;;0.42;66.31;99660.63;5048892;28;20485;-79
2022/03/09 07:01:42;;;;;;;18.73;10.07;;;;;;;0.59;65.46;99691.19;5013727;28;20094;-79
2022/03/09 07:04:07;;;;;;;12.95;8.65;;;;;;;0.52;66.14;99675.28;5034260;28;20152;-79
2022/03/09 07:06:33;;;;;;;13.52;8.43;;;;;;;0.62;66.17;99686.44;5033208;28;20385;-79
2022/03/09 07:08:58;;;;;;;15.98;9.15;;;;;;;0.71;66.12;99695.13;5017558;28;20029;-79
2022/03/09 07:11:23;;;;;;;16.85;10.18;;;;;;;0.59;65.81;99670.97;5035101;28;20122;-79
2022/03/09 07:13:48;;;;;;;18.02;9.75;;;;;;;0.67;66.11;99678.88;5016319;28;20319;-78
2022/03/09 07:16:14;;;;;;;22.40;10.60;;;;;;;0.82;65.27;99694.78;5000401;28;20509;-78
2022/03/09 07:18:39;;;;;;;16.42;9.63;;;;;;;0.75;65.83;99683.28;5034767;28;20037;-78
2022/03/09 07:21:04;;;;;;;17.50;9.85;;;;;;;0.87;65.86;99696.91;5034331;28;20493;-80
2022/03/09 07:23:30;;;;;;;14.02;9.27;;;;;;;0.87;65.55;99689.03;5032478;28;20509;-78
2022/03/09 07:25:55;;;;;;;11.48;7.90;;;;;;;0.91;65.51;99703.47;5033347;28;20026;-78
2022/03/09 07:28:20;;;;;;;13.60;8.98;;;;;;;0.82;66.12;99684.28;5012615;28;20518;-78
2022/03/09 07:30:46;;;;;;;15.93;9.88;;;;;;;0.82;66.37;99675.56;5034694;28;20540;-78
2022/03/09 07:33:12;;;;;;;16.95;10.05;;;;;;;0.95;65.74;99699.53;5016564;28;20124;-78
2022/03/09 07:35:37;;;;;;;17.63;10.20;;;;;;;0.94;66.73;99716.31;5032401;28;20041;-78
2022/03/09 07:38:03;;;;;;;15.02;9.73;;;;;;;0.96;66.58;99714.31;4999866;28;20452;-78
2022/03/09 07:40:29;;;;;;;15.43;9.63;;;;;;;1.03;66.60;99717.91;5016374;28;20033;-78
2022/03/09 07:42:54;;;;;;;18.17;9.98;;;;;;;1.06;66.19;99714.97;5032047;28;20121;-78
2022/03/09 07:45:20;;;;;;;16.15;9.65;;;;;;;1.09;66.26;99718.06;5013087;28;20087;-79
2022/03/09 07:47:47;;;;;;;14.13;8.93;;;;;;;0.86;66.49;99669.81;5027759;28;20482;-79
2022/03/09 07:50:12;;;;;;;15.98;9.65;;;;;;;0.91;66.48;99679.84;5033086;28;20493;-78
2022/03/09 07:52:38;;;;;;;15.02;9.88;;;;;;;1.18;66.95;99721.53;5016362;28;20042;-78
2022/03/09 07:55:07;;;;;;;17.05;10.85;;;;;;;1.19;66.40;99708.22;5048302;28;20064;-78
2022/03/09 07:57:32;;;;;;;14.27;9.18;;;;;;;1.17;66.26;99704.94;5032925;28;20052;-79
2022/03/09 07:59:58;;;;;;;17.98;11.10;;;;;;;1.27;66.06;99726.59;5033014;28;20041;-78
2022/03/09 08:02:23;;;;;;;18.02;10.40;;;;;;;1.23;65.90;99712.13;5029337;28;20065;-78
2022/03/09 08:04:48;;;;;;;14.98;9.90;;;;;;;1.35;65.99;99723.97;5033502;28;20423;-78
2022/03/09 08:07:14;;;;;;;16.42;11.30;;;;;;;1.21;66.12;99694.88;5032981;28;20036;-78
2022/03/09 08:09:39;;;;;;;18.73;10.50;;;;;;;1.41;66.20;99731.16;5016419;28;20049;-79
2022/03/09 08:12:04;;;;;;;17.63;10.43;;;;;;;1.47;65.98;99732.28;5015937;28;20052;-78
2022/03/09 08:14:30;;;;;;;16.75;11.10;;;;;;;1.42;66.41;99716.22;5033240;28;20037;-78
2022/03/09 08:16:55;;;;;;;15.77;10.50;;;;;;;1.44;66.31;99709.78;5032160;28;20055;-78
2022/03/09 08:19:20;;;;;;;15.43;9.40;;;;;;;1.47;65.71;99717.34;5032345;28;20033;-80
2022/03/09 08:21:46;;;;;;;17.02;10.73;;;;;;;1.47;66.04;99709.44;5026042;28;20042;-79
2022/03/09 08:24:11;;;;;;;17.40;10.77;;;;;;;1.63;65.59;99726.16;5031564;28;20029;-79
2022/03/09 08:26:36;;;;;;;15.52;9.95;;;;;;;1.71;66.23;99724.31;5031481;28;20547;-79
2022/03/09 08:29:02;;;;;;;13.00;9.32;;;;;;;1.59;65.76;99695.94;5033300;28;20025;-79
2022/03/09 08:31:28;;;;;;;15.07;10.07;;;;;;;1.68;65.92;99718.59;5033435;28;20029;-79
2022/03/09 08:33:55;;;;;;;13.45;9.35;;;;;;;1.81;66.43;99724.13;5011677;28;20084;-79
2022/03/09 08:36:21;;;;;;;17.42;10.90;;;;;;;1.73;66.51;99692.56;5013139;28;20037;-78
2022/03/09 08:38:46;;;;;;;22.13;10.27;;;;;;;1.82;65.48;99709.97;5013052;28;20038;-78
2022/03/09 08:41:12;;;;;;;17.70;11.00;;;;;;;1.83;66.44;99704.56;4996239;28;20088;-78
2022/03/09 08:43:37;;;;;;;19.17;10.75;;;;;;;1.96;66.55;99712.72;5022527;28;20426;-78
2022/03/09 08:46:02;;;;;;;15.73;9.85;;;;;;;1.91;66.28;99698.41;5016127;28;20021;-80
2022/03/09 08:48:28;;;;;;;15.60;10.10;;;;;;;1.92;66.29;99698.22;5015733;28;20033;-80
2022/03/09 08:50:54;;;;;;;16.88;10.68;;;;;;;2.10;66.58;99719.03;4997111;28;20424;-80
2022/03/09 08:53:20;;;;;;;13.68;10.40;;;;;;;2.15;66.57;99721.97;5030875;28;20017;-80
2022/03/09 08:55:46;;;;;;;14.45;9.80;;;;;;;2.05;66.10;99701.13;5031727;28;20479;-80
2022/03/09 08:58:11;;;;;;;20.27;9.95;;;;;;;2.20;66.05;99715.22;5032144;28;20021;-80
2022/03/09 09:00:36;;;;;;;16.67;10.27;;;;;;;2.22;66.10;99715.84;4999001;28;20029;-80
2022/03/09 09:03:02;;;;;;;16.67;10.68;;;;;;;2.30;66.16;99717.59;5030819;28;20037;-80
2022/03/09 09:05:27;;;;;;;13.52;9.50;;;;;;;2.18;66.06;99693.47;5031362;28;20120;-80
2022/03/09 09:07:53;;;;;;;14.77;10.00;;;;;;;2.39;65.80;99716.56;5014688;28;20033;-80
2022/03/09 09:10:18;;;;;;;19.48;11.98;;;;;;;2.44;66.26;99718.69;5031671;28;20030;-80
2022/03/09 09:12:46;;;;;;;17.10;10.10;;;;;;;2.45;65.54;99709.75;5031095;28;20032;-80
2022/03/09 09:15:11;;;;;;;18.70;10.70;;;;;;;2.53;66.05;99721.09;4999307;28;20116;-80
2022/03/09 09:17:37;;;;;;;17.38;10.43;;;;;;;2.46;66.21;99692.97;5031664;28;20572;-80
2022/03/09 09:20:03;;;;;;;15.13;9.60;;;;;;;2.62;65.91;99719.22;5033089;28;20061;-80
2022/03/09 09:22:29;;;;;;;17.20;11.07;;;;;;;2.60;65.73;99711.47;5030817;28;20040;-80
2022/03/09 09:24:54;;;;;;;15.95;11.07;;;;;;;2.65;65.96;99705.66;5014605;28;20492;-80
2022/03/09 09:27:19;;;;;;;18.63;10.75;;;;;;;2.75;65.80;99719.44;5031496;28;20116;-81
2022/03/09 09:29:44;;;;;;;14.35;9.88;;;;;;;2.79;65.77;99721.56;5031488;28;20047;-80
2022/03/09 09:32:10;;;;;;;15.50;9.95;;;;;;;2.84;65.20;99727.09;5031531;28;20041;-80
2022/03/09 09:34:35;;;;;;;19.17;11.13;;;;;;;2.84;65.70;99716.53;5030815;28;20114;-80
2022/03/09 09:37:02;;;;;;;15.30;10.50;;;;;;;2.78;65.71;99704.09;5031474;28;20028;-80
2022/03/09 09:39:28;;;;;;;18.75;11.57;;;;;;;2.93;65.67;99712.00;5031621;28;20053;-80
2022/03/09 09:41:53;;;;;;;17.65;9.77;;;;;;;2.92;65.42;99707.75;5032482;28;20045;-80
2022/03/09 09:44:21;;;;;;;17.98;10.25;;;;;;;2.91;65.50;99699.03;5011526;28;20067;-80
2022/03/09 09:46:46;;;;;;;18.58;11.60;;;;;;;3.05;65.52;99707.97;4999031;28;20124;-80
2022/03/09 09:49:14;;;;;;;16.42;10.30;;;;;;;3.02;65.87;99703.88;5014449;28;20128;-81
2022/03/09 09:51:42;;;;;;;15.70;10.30;;;;;;;3.21;65.46;99726.25;5013838;28;20116;-80
2022/03/09 09:54:07;;;;;;;17.30;11.07;;;;;;;3.28;65.81;99721.09;5031869;28;20388;-80
2022/03/09 09:56:38;;;;;;;17.63;11.38;;;;;;;3.30;65.56;99713.84;5033376;28;20046;-80
2022/03/09 09:59:04;;;;;;;18.65;10.73;;;;;;;3.16;66.25;99685.59;5030988;28;20054;-80
2022/03/09 10:01:29;;;;;;;18.45;10.75;;;;;;;3.31;65.67;99700.44;5033027;28;20022;-80
2022/03/09 10:03:55;;;;;;;16.05;10.48;;;;;;;3.37;65.77;99693.63;5030191;28;20044;-80
2022/03/09 10:06:20;;;;;;;17.75;10.73;;;;;;;3.41;65.89;99695.72;5031448;28;20389;-80
2022/03/09 10:09:09;;;;;;;16.52;11.35;;;;;;;3.51;65.97;99706.00;5031237;28;20025;-80
2022/03/09 10:11:45;;;;;;;16.33;11.32;;;;;;;3.66;66.04;99715.56;5011278;28;20117;-81
2022/03/09 10:14:12;;;;;;;16.75;10.68;;;;;;;3.66;66.14;99712.94;4994529;28;20041;-81
2022/03/09 10:16:37;;;;;;;15.95;11.32;;;;;;;3.80;65.77;99722.63;5029966;28;20065;-78
2022/03/09 10:19:03;;;;;;;19.13;11.13;;;;;;;3.82;65.69;99706.63;5034865;28;20064;-78
2022/03/09 10:21:35;;;;;;;16.33;11.23;;;;;;;3.85;65.13;99695.69;5031953;28;20037;-81
2022/03/09 10:24:03;;;;;;;17.50;12.00;;;;;;;4.05;64.96;99703.84;5014078;28;20026;-80
2022/03/09 10:26:46;;;;;;;16.67;11.07;;;;;;;4.00;65.05;99693.84;5032569;28;20030;-80
2022/03/09 10:29:14;;;;;;;16.73;10.80;;;;;;;4.20;64.85;99709.91;5036256;28;20038;-80
2022/03/09 10:31:47;;;;;;;16.10;10.40;;;;;;;4.19;64.98;99700.38;5035342;28;20092;-78
2022/03/09 10:34:19;;;;;;;16.98;11.00;;;;;;;4.24;64.80;99700.59;5034378;28;20034;-81
2022/03/09 10:36:59;;;;;;;14.88;11.25;;;;;;;4.42;64.07;99717.69;5035918;28;20025;-80
2022/03/09 10:39:39;;;;;;;17.23;11.50;;;;;;;4.30;64.31;99687.47;5036153;28;20029;-80
2022/03/09 10:42:22;;;;;;;14.57;10.02;;;;;;;4.37;64.51;99690.16;5036567;28;20104;-80
2022/03/09 10:44:50;;;;;;;15.32;10.15;;;;;;;4.59;64.24;99712.16;5033729;28;20022;-80
2022/03/09 10:47:30;;;;;;;18.60;9.98;;;;;;;4.59;64.41;99714.81;5036164;28;20461;-80
2022/03/09 10:50:21;;;;;;;18.33;12.50;;;;;;;4.59;63.72;99712.97;5031226;28;20041;-80
2022/03/09 10:52:49;;;;;;;15.43;10.50;;;;;;;4.63;64.05;99708.94;5034269;28;20192;-80
2022/03/09 10:55:23;;;;;;;17.17;10.68;;;;;;;4.62;64.22;99712.59;5035728;28;20040;-80
2022/03/09 10:57:50;;;;;;;15.10;9.60;;;;;;;4.60;64.63;99692.63;5034828;28;20489;-80
2022/03/09 11:00:33;;;;;;;18.52;11.88;;;;;;;4.64;64.03;99693.91;5035879;28;20037;-82
2022/03/09 11:03:04;;;;;;;17.67;10.88;;;;;;;4.73;64.04;99708.63;5033935;28;20047;-82
2022/03/09 11:05:30;;;;;;;18.50;11.10;;;;;;;4.69;64.09;99696.78;5035322;28;20037;-80
2022/03/09 11:07:56;;;;;;;15.68;11.38;;;;;;;4.80;63.82;99706.88;5013815;28;20040;-79
2022/03/09 11:10:24;;;;;;;15.00;9.93;;;;;;;4.78;63.92;99696.50;5016081;28;20017;-82
2022/03/09 11:12:50;;;;;;;18.58;9.55;;;;;;;4.64;63.61;99662.16;5018321;28;20032;-81
2022/03/09 11:15:15;;;;;;;15.95;9.40;;;;;;;4.79;63.64;99681.41;5033766;28;20029;-82
2022/03/09 11:17:41;;;;;;;16.48;11.77;;;;;;;4.93;63.07;99701.69;5034467;28;20033;-82
2022/03/09 11:20:08;;;;;;;14.40;9.68;;;;;;;4.89;63.00;99674.00;5034231;28;20033;-80
2022/03/09 11:22:33;;;;;;;15.57;9.95;;;;;;;4.90;62.81;99671.13;5033564;28;20555;-81
2022/03/09 11:24:58;;;;;;;14.48;9.50;;;;;;;4.99;63.00;99671.81;5016390;28;20034;-79
2022/03/09 11:27:25;;;;;;;13.68;9.18;;;;;;;4.86;62.86;99639.97;5017038;28;20018;-81
2022/03/09 11:29:52;;;;;;;14.07;9.57;;;;;;;5.08;62.22;99662.72;5033877;28;20496;-82